Soapstone Mountain, North Carolina
Current Conditions -  °F | °C
As of 9:55 AM on Friday 28 Nov 2014 (Local Time) from K5W8 Reporting Station
Clear Clear  
Wind Chill: 32°   Ceiling: Unl
Heat Index: 37°   Visibility: 10mi
Dew Point: 21°   Wind: 6mph
Humidity: 52%   Direction: 350°N
Pressure: 30.38"   Gusts: NA
Location:  35.8007°N, 79.5885°W
Report Text: K5W8 281455Z AUTO 35005KT 10SM CLR 03/M06 A3038 RMK AO2 T00261063
Loading
Personal Weather Stations






























Interactive Weather Map New forecast layout! Learn more

10-Day Weather Forecast

Advertisements
Track Severe Weather on mobile